Shawanaga, Canada
Current Conditions -  °F | °C
As of 9:46 AM on Monday 24 Nov 2014 (Local Time) from CYQA Reporting Station
Haze Haze  
Wind Chill: 42°   Ceiling: 800
Heat Index: 48°   Visibility: 6mi
Dew Point: 48°   Wind: 16mph
Humidity: 100%   Direction: 180°S
Pressure: 29.1"   Gusts: 26mph
Location:  45.52°N, 80.28°W
Report Text: CYQA 241346Z AUTO 18014G23KT 6SM BR OVC008 09/09 A2910 RMK SLP860 DENSITY ALT 1300FT
Loading
Personal Weather Stations






























Interactive Weather Map New forecast layout! Learn more

10-Day Weather Forecast

Advertisements
Track Severe Weather on mobile